sensor_id;sensor_type;location;lat;lon;timestamp;temperature;humidity
45096;DHT22;30858;51.108;8.068;2023-03-01T00:00:40;-4.00;99.90
45096;DHT22;30858;51.108;8.068;2023-03-01T00:03:06;-4.10;99.90
45096;DHT22;30858;51.108;8.068;2023-03-01T00:05:32;-4.10;99.90
45096;DHT22;30858;51.108;8.068;2023-03-01T00:07:58;-4.00;99.90
45096;DHT22;30858;51.108;8.068;2023-03-01T00:10:24;-4.20;99.90
45096;DHT22;30858;51.108;8.068;2023-03-01T00:12:49;-4.20;99.90
45096;DHT22;30858;51.108;8.068;2023-03-01T00:15:15;-4.30;99.90
45096;DHT22;30858;51.108;8.068;2023-03-01T00:17:40;-4.40;99.90
45096;DHT22;30858;51.108;8.068;2023-03-01T00:20:06;-4.30;99.90
45096;DHT22;30858;51.108;8.068;2023-03-01T00:22:36;-4.30;99.90
45096;DHT22;30858;51.108;8.068;2023-03-01T00:25:02;-4.30;99.90
45096;DHT22;30858;51.108;8.068;2023-03-01T00:27:28;-4.30;99.90
45096;DHT22;30858;51.108;8.068;2023-03-01T00:29:53;-4.20;99.90
45096;DHT22;30858;51.108;8.068;2023-03-01T00:32:19;-4.30;99.90
45096;DHT22;30858;51.108;8.068;2023-03-01T00:34:44;-4.30;99.90
45096;DHT22;30858;51.108;8.068;2023-03-01T00:37:23;-4.50;99.90
45096;DHT22;30858;51.108;8.068;2023-03-01T00:39:49;-4.50;99.90
45096;DHT22;30858;51.108;8.068;2023-03-01T00:42:15;-4.50;99.90
45096;DHT22;30858;51.108;8.068;2023-03-01T00:44:41;-4.50;99.90
45096;DHT22;30858;51.108;8.068;2023-03-01T00:47:07;-4.50;99.90
45096;DHT22;30858;51.108;8.068;2023-03-01T00:49:32;-4.50;99.90
45096;DHT22;30858;51.108;8.068;2023-03-01T00:51:58;-4.50;99.90
45096;DHT22;30858;51.108;8.068;2023-03-01T00:54:23;-4.60;99.90
45096;DHT22;30858;51.108;8.068;2023-03-01T00:56:49;-4.60;99.90
45096;DHT22;30858;51.108;8.068;2023-03-01T00:59:14;-4.70;99.90
45096;DHT22;30858;51.108;8.068;2023-03-01T01:01:40;-4.70;99.90
45096;DHT22;30858;51.108;8.068;2023-03-01T01:04:07;-4.70;99.90
45096;DHT22;30858;51.108;8.068;2023-03-01T01:06:36;-4.80;99.90
45096;DHT22;30858;51.108;8.068;2023-03-01T01:09:04;-4.70;99.90
45096;DHT22;30858;51.108;8.068;2023-03-01T01:11:30;-4.70;99.90
45096;DHT22;30858;51.108;8.068;2023-03-01T01:13:56;-4.70;99.90
45096;DHT22;30858;51.108;8.068;2023-03-01T01:16:24;-4.80;99.90
45096;DHT22;30858;51.108;8.068;2023-03-01T01:18:51;-4.90;99.90
45096;DHT22;30858;51.108;8.068;2023-03-01T01:21:20;-5.00;99.90
45096;DHT22;30858;51.108;8.068;2023-03-01T01:23:46;-5.00;99.90
45096;DHT22;30858;51.108;8.068;2023-03-01T01:26:22;-5.00;99.90
45096;DHT22;30858;51.108;8.068;2023-03-01T01:28:48;-5.00;99.90
45096;DHT22;30858;51.108;8.068;2023-03-01T01:31:14;-5.10;99.90
45096;DHT22;30858;51.108;8.068;2023-03-01T01:33:40;-5.00;99.90
45096;DHT22;30858;51.108;8.068;2023-03-01T01:36:06;-5.00;99.90
45096;DHT22;30858;51.108;8.068;2023-03-01T01:38:33;-5.10;99.90
45096;DHT22;30858;51.108;8.068;2023-03-01T01:40:59;-5.10;99.90
45096;DHT22;30858;51.108;8.068;2023-03-01T01:43:36;-5.10;99.90
45096;DHT22;30858;51.108;8.068;2023-03-01T01:46:30;-5.20;99.90
45096;DHT22;30858;51.108;8.068;2023-03-01T01:49:04;-5.20;99.90
45096;DHT22;30858;51.108;8.068;2023-03-01T01:51:37;-5.30;99.90
45096;DHT22;30858;51.108;8.068;2023-03-01T01:54:08;-5.40;99.90
45096;DHT22;30858;51.108;8.068;2023-03-01T01:56:37;-5.40;99.90
45096;DHT22;30858;51.108;8.068;2023-03-01T01:59:05;-5.40;99.90
45096;DHT22;30858;51.108;8.068;2023-03-01T02:01:31;-5.40;99.90
45096;DHT22;30858;51.108;8.068;2023-03-01T02:03:57;-5.50;99.90
45096;DHT22;30858;51.108;8.068;2023-03-01T02:06:39;-5.50;99.90
45096;DHT22;30858;51.108;8.068;2023-03-01T02:09:13;-5.50;99.90
45096;DHT22;30858;51.108;8.068;2023-03-01T02:11:39;-5.50;99.90
45096;DHT22;30858;51.108;8.068;2023-03-01T02:14:05;-5.50;99.90
45096;DHT22;30858;51.108;8.068;2023-03-01T02:16:31;-5.60;99.90
45096;DHT22;30858;51.108;8.068;2023-03-01T02:18:58;-5.60;99.90
45096;DHT22;30858;51.108;8.068;2023-03-01T02:23:53;-5.60;99.90
45096;DHT22;30858;51.108;8.068;2023-03-01T02:26:26;-5.50;99.90
45096;DHT22;30858;51.108;8.068;2023-03-01T02:28:54;-5.60;99.90
45096;DHT22;30858;51.108;8.068;2023-03-01T02:31:21;-5.60;99.90
45096;DHT22;30858;51.108;8.068;2023-03-01T02:34:06;-5.60;99.90
45096;DHT22;30858;51.108;8.068;2023-03-01T02:36:41;-5.70;99.90
45096;DHT22;30858;51.108;8.068;2023-03-01T02:39:10;-5.70;99.90
45096;DHT22;30858;51.108;8.068;2023-03-01T02:41:43;-5.70;99.90
45096;DHT22;30858;51.108;8.068;2023-03-01T02:44:09;-5.70;99.90
45096;DHT22;30858;51.108;8.068;2023-03-01T02:46:42;-5.80;99.90
45096;DHT22;30858;51.108;8.068;2023-03-01T02:49:38;-5.90;99.90
45096;DHT22;30858;51.108;8.068;2023-03-01T02:52:33;-5.90;99.90
45096;DHT22;30858;51.108;8.068;2023-03-01T02:55:14;-5.90;99.90
45096;DHT22;30858;51.108;8.068;2023-03-01T02:57:43;-6.00;99.90
45096;DHT22;30858;51.108;8.068;2023-03-01T03:00:14;-5.90;99.90
45096;DHT22;30858;51.108;8.068;2023-03-01T03:02:48;-6.00;99.90
45096;DHT22;30858;51.108;8.068;2023-03-01T03:05:20;-6.10;99.90
45096;DHT22;30858;51.108;8.068;2023-03-01T03:07:47;-6.10;99.90
45096;DHT22;30858;51.108;8.068;2023-03-01T03:10:17;-6.00;99.90
45096;DHT22;30858;51.108;8.068;2023-03-01T03:12:48;-6.00;99.90
45096;DHT22;30858;51.108;8.068;2023-03-01T03:15:14;-6.00;99.90
45096;DHT22;30858;51.108;8.068;2023-03-01T03:17:41;-6.00;99.90
45096;DHT22;30858;51.108;8.068;2023-03-01T03:20:09;-6.00;99.90
45096;DHT22;30858;51.108;8.068;2023-03-01T03:22:38;-6.00;99.90
45096;DHT22;30858;51.108;8.068;2023-03-01T03:25:05;-6.10;99.90
45096;DHT22;30858;51.108;8.068;2023-03-01T03:27:36;-6.20;99.90
45096;DHT22;30858;51.108;8.068;2023-03-01T03:30:01;-6.20;99.90
45096;DHT22;30858;51.108;8.068;2023-03-01T03:32:27;-6.20;99.90
45096;DHT22;30858;51.108;8.068;2023-03-01T03:34:52;-6.20;99.90
45096;DHT22;30858;51.108;8.068;2023-03-01T03:37:18;-6.20;99.90
45096;DHT22;30858;51.108;8.068;2023-03-01T03:40:02;-6.20;99.90
45096;DHT22;30858;51.108;8.068;2023-03-01T03:42:28;-6.20;99.90
45096;DHT22;30858;51.108;8.068;2023-03-01T03:44:54;-6.20;99.90
45096;DHT22;30858;51.108;8.068;2023-03-01T03:47:19;-6.30;99.90
45096;DHT22;30858;51.108;8.068;2023-03-01T03:49:45;-6.40;99.90
45096;DHT22;30858;51.108;8.068;2023-03-01T03:52:10;-6.40;99.90
45096;DHT22;30858;51.108;8.068;2023-03-01T03:54:40;-6.40;99.90
45096;DHT22;30858;51.108;8.068;2023-03-01T03:57:06;-6.30;99.90
45096;DHT22;30858;51.108;8.068;2023-03-01T03:59:31;-6.20;99.90
45096;DHT22;30858;51.108;8.068;2023-03-01T04:01:57;-6.20;99.90
45096;DHT22;30858;51.108;8.068;2023-03-01T04:04:22;-6.30;99.90
45096;DHT22;30858;51.108;8.068;2023-03-01T04:06:48;-6.20;99.90
45096;DHT22;30858;51.108;8.068;2023-03-01T04:09:14;-6.30;99.90
45096;DHT22;30858;51.108;8.068;2023-03-01T04:11:39;-6.30;99.90
45096;DHT22;30858;51.108;8.068;2023-03-01T04:14:05;-6.40;99.90
45096;DHT22;30858;51.108;8.068;2023-03-01T04:16:30;-6.50;99.90
45096;DHT22;30858;51.108;8.068;2023-03-01T04:18:56;-6.60;99.90
45096;DHT22;30858;51.108;8.068;2023-03-01T04:21:24;-6.60;99.90
45096;DHT22;30858;51.108;8.068;2023-03-01T04:23:50;-6.70;99.90
45096;DHT22;30858;51.108;8.068;2023-03-01T04:26:18;-6.70;99.90
45096;DHT22;30858;51.108;8.068;2023-03-01T04:28:44;-6.70;99.90
45096;DHT22;30858;51.108;8.068;2023-03-01T04:31:13;-6.60;99.90
45096;DHT22;30858;51.108;8.068;2023-03-01T04:33:52;-6.70;99.90
45096;DHT22;30858;51.108;8.068;2023-03-01T04:36:18;-6.70;99.90
45096;DHT22;30858;51.108;8.068;2023-03-01T04:38:45;-6.70;99.90
45096;DHT22;30858;51.108;8.068;2023-03-01T04:41:15;-6.80;99.90
45096;DHT22;30858;51.108;8.068;2023-03-01T04:43:41;-6.80;99.90
45096;DHT22;30858;51.108;8.068;2023-03-01T04:46:09;-6.70;99.90
45096;DHT22;30858;51.108;8.068;2023-03-01T04:48:37;-6.70;99.90
45096;DHT22;30858;51.108;8.068;2023-03-01T04:51:03;-6.80;99.90
45096;DHT22;30858;51.108;8.068;2023-03-01T04:53:29;-6.80;99.90
45096;DHT22;30858;51.108;8.068;2023-03-01T04:55:56;-6.80;99.90
45096;DHT22;30858;51.108;8.068;2023-03-01T04:58:28;-6.80;99.90
45096;DHT22;30858;51.108;8.068;2023-03-01T05:00:54;-6.80;99.90
45096;DHT22;30858;51.108;8.068;2023-03-01T05:03:20;-6.90;99.90
45096;DHT22;30858;51.108;8.068;2023-03-01T05:05:48;-7.00;99.90
45096;DHT22;30858;51.108;8.068;2023-03-01T05:08:14;-7.00;99.90
45096;DHT22;30858;51.108;8.068;2023-03-01T05:10:50;-6.90;99.90
45096;DHT22;30858;51.108;8.068;2023-03-01T05:13:17;-6.80;99.90
45096;DHT22;30858;51.108;8.068;2023-03-01T05:15:56;-6.90;99.90
45096;DHT22;30858;51.108;8.068;2023-03-01T05:18:24;-6.90;99.90
45096;DHT22;30858;51.108;8.068;2023-03-01T05:20:54;-6.90;99.90
45096;DHT22;30858;51.108;8.068;2023-03-01T05:23:22;-7.00;99.90
45096;DHT22;30858;51.108;8.068;2023-03-01T05:25:48;-7.10;99.90
45096;DHT22;30858;51.108;8.068;2023-03-01T05:28:15;-7.00;99.90
45096;DHT22;30858;51.108;8.068;2023-03-01T05:30:41;-6.90;99.90
45096;DHT22;30858;51.108;8.068;2023-03-01T05:33:07;-6.80;99.90
45096;DHT22;30858;51.108;8.068;2023-03-01T05:35:39;-6.90;99.90
45096;DHT22;30858;51.108;8.068;2023-03-01T05:38:05;-6.90;99.90
45096;DHT22;30858;51.108;8.068;2023-03-01T05:40:33;-7.00;99.90
45096;DHT22;30858;51.108;8.068;2023-03-01T05:42:59;-7.00;99.90
45096;DHT22;30858;51.108;8.068;2023-03-01T05:45:26;-7.10;99.90
45096;DHT22;30858;51.108;8.068;2023-03-01T05:47:52;-7.10;99.90
45096;DHT22;30858;51.108;8.068;2023-03-01T05:50:26;-7.00;99.90
45096;DHT22;30858;51.108;8.068;2023-03-01T05:53:15;-6.90;99.90
45096;DHT22;30858;51.108;8.068;2023-03-01T05:55:42;-6.90;99.90
45096;DHT22;30858;51.108;8.068;2023-03-01T05:58:12;-7.00;99.90
45096;DHT22;30858;51.108;8.068;2023-03-01T06:00:39;-7.10;99.90
45096;DHT22;30858;51.108;8.068;2023-03-01T06:03:05;-7.10;99.90
45096;DHT22;30858;51.108;8.068;2023-03-01T06:05:31;-7.20;99.90
45096;DHT22;30858;51.108;8.068;2023-03-01T06:07:59;-7.20;99.90
45096;DHT22;30858;51.108;8.068;2023-03-01T06:10:25;-7.10;99.90
45096;DHT22;30858;51.108;8.068;2023-03-01T06:12:50;-7.10;99.90
45096;DHT22;30858;51.108;8.068;2023-03-01T06:15:16;-7.20;99.90
45096;DHT22;30858;51.108;8.068;2023-03-01T06:17:44;-7.20;99.90
45096;DHT22;30858;51.108;8.068;2023-03-01T06:20:22;-7.20;99.90
45096;DHT22;30858;51.108;8.068;2023-03-01T06:22:48;-7.20;99.90
45096;DHT22;30858;51.108;8.068;2023-03-01T06:25:16;-7.30;99.90
45096;DHT22;30858;51.108;8.068;2023-03-01T06:27:43;-7.20;99.90
45096;DHT22;30858;51.108;8.068;2023-03-01T06:30:11;-7.10;99.90
45096;DHT22;30858;51.108;8.068;2023-03-01T06:32:38;-6.90;99.90
45096;DHT22;30858;51.108;8.068;2023-03-01T06:35:07;-6.80;99.90
45096;DHT22;30858;51.108;8.068;2023-03-01T06:37:33;-6.80;99.90
45096;DHT22;30858;51.108;8.068;2023-03-01T06:39:58;-6.80;99.90
45096;DHT22;30858;51.108;8.068;2023-03-01T06:42:24;-6.70;99.90
45096;DHT22;30858;51.108;8.068;2023-03-01T06:44:49;-6.80;99.90
45096;DHT22;30858;51.108;8.068;2023-03-01T06:47:15;-6.70;99.90
45096;DHT22;30858;51.108;8.068;2023-03-01T06:49:41;-6.60;99.90
45096;DHT22;30858;51.108;8.068;2023-03-01T06:52:07;-6.60;99.90
45096;DHT22;30858;51.108;8.068;2023-03-01T06:54:32;-6.70;99.90
45096;DHT22;30858;51.108;8.068;2023-03-01T06:56:59;-6.60;99.90
45096;DHT22;30858;51.108;8.068;2023-03-01T06:59:24;-6.40;99.90
45096;DHT22;30858;51.108;8.068;2023-03-01T07:01:50;-6.40;99.90
45096;DHT22;30858;51.108;8.068;2023-03-01T07:04:15;-6.40;99.90
45096;DHT22;30858;51.108;8.068;2023-03-01T07:06:41;-6.40;99.90
45096;DHT22;30858;51.108;8.068;2023-03-01T07:09:06;-6.20;99.90
45096;DHT22;30858;51.108;8.068;2023-03-01T07:11:32;-6.30;99.90
45096;DHT22;30858;51.108;8.068;2023-03-01T07:13:57;-6.30;99.90
45096;DHT22;30858;51.108;8.068;2023-03-01T07:16:23;-6.20;99.90
45096;DHT22;30858;51.108;8.068;2023-03-01T07:18:49;-6.20;99.90
45096;DHT22;30858;51.108;8.068;2023-03-01T07:21:15;-6.10;99.90
45096;DHT22;30858;51.108;8.068;2023-03-01T07:23:41;-6.00;99.90
45096;DHT22;30858;51.108;8.068;2023-03-01T07:26:07;-6.00;99.90
45096;DHT22;30858;51.108;8.068;2023-03-01T07:28:33;-6.00;99.90
45096;DHT22;30858;51.108;8.068;2023-03-01T07:31:05;-6.00;99.90
45096;DHT22;30858;51.108;8.068;2023-03-01T07:33:32;-5.90;99.90
45096;DHT22;30858;51.108;8.068;2023-03-01T07:36:02;-5.90;99.90
45096;DHT22;30858;51.108;8.068;2023-03-01T07:38:28;-5.90;99.90
45096;DHT22;30858;51.108;8.068;2023-03-01T07:40:58;-5.90;99.90
45096;DHT22;30858;51.108;8.068;2023-03-01T07:43:24;-5.90;99.90
45096;DHT22;30858;51.108;8.068;2023-03-01T07:45:50;-5.80;99.90
45096;DHT22;30858;51.108;8.068;2023-03-01T07:48:15;-5.60;99.90
45096;DHT22;30858;51.108;8.068;2023-03-01T07:50:41;-5.40;99.90
45096;DHT22;30858;51.108;8.068;2023-03-01T07:53:06;-5.00;99.90
45096;DHT22;30858;51.108;8.068;2023-03-01T07:55:32;-4.70;99.90
45096;DHT22;30858;51.108;8.068;2023-03-01T07:57:57;-4.30;99.90
45096;DHT22;30858;51.108;8.068;2023-03-01T08:00:23;-3.90;99.90
45096;DHT22;30858;51.108;8.068;2023-03-01T08:02:48;-3.50;99.90
45096;DHT22;30858;51.108;8.068;2023-03-01T08:05:14;-3.50;99.90
45096;DHT22;30858;51.108;8.068;2023-03-01T08:07:40;-3.30;99.90
45096;DHT22;30858;51.108;8.068;2023-03-01T08:10:05;-2.90;99.90
45096;DHT22;30858;51.108;8.068;2023-03-01T08:12:31;-2.30;99.90
45096;DHT22;30858;51.108;8.068;2023-03-01T08:14:57;-2.00;99.90
45096;DHT22;30858;51.108;8.068;2023-03-01T08:17:22;-2.00;99.90
45096;DHT22;30858;51.108;8.068;2023-03-01T08:19:48;-1.90;99.90
45096;DHT22;30858;51.108;8.068;2023-03-01T08:22:14;-1.70;99.90
45096;DHT22;30858;51.108;8.068;2023-03-01T08:24:39;-1.50;99.90
45096;DHT22;30858;51.108;8.068;2023-03-01T08:27:05;-1.10;99.90
45096;DHT22;30858;51.108;8.068;2023-03-01T08:29:32;-0.90;99.90
45096;DHT22;30858;51.108;8.068;2023-03-01T08:31:57;-0.70;99.90
45096;DHT22;30858;51.108;8.068;2023-03-01T08:34:23;-0.40;99.90
45096;DHT22;30858;51.108;8.068;2023-03-01T08:36:48;-0.10;99.90
45096;DHT22;30858;51.108;8.068;2023-03-01T08:39:17;-0.10;99.90
45096;DHT22;30858;51.108;8.068;2023-03-01T08:41:43;0.00;99.90
45096;DHT22;30858;51.108;8.068;2023-03-01T08:44:10;0.20;99.90
45096;DHT22;30858;51.108;8.068;2023-03-01T08:46:41;0.20;99.90
45096;DHT22;30858;51.108;8.068;2023-03-01T08:49:08;0.20;99.90
45096;DHT22;30858;51.108;8.068;2023-03-01T08:51:34;0.50;99.90
45096;DHT22;30858;51.108;8.068;2023-03-01T08:54:07;0.80;99.90
45096;DHT22;30858;51.108;8.068;2023-03-01T08:56:35;0.90;99.90
45096;DHT22;30858;51.108;8.068;2023-03-01T08:59:00;1.20;99.90
45096;DHT22;30858;51.108;8.068;2023-03-01T09:01:26;1.60;99.90
45096;DHT22;30858;51.108;8.068;2023-03-01T09:03:52;1.70;99.90
45096;DHT22;30858;51.108;8.068;2023-03-01T09:06:17;1.90;99.90
45096;DHT22;30858;51.108;8.068;2023-03-01T09:08:46;2.40;99.90
45096;DHT22;30858;51.108;8.068;2023-03-01T09:11:14;3.00;99.90
45096;DHT22;30858;51.108;8.068;2023-03-01T09:13:41;3.50;99.90
45096;DHT22;30858;51.108;8.068;2023-03-01T09:16:08;4.00;99.90
45096;DHT22;30858;51.108;8.068;2023-03-01T09:18:34;4.00;99.90
45096;DHT22;30858;51.108;8.068;2023-03-01T09:21:09;3.90;99.90
45096;DHT22;30858;51.108;8.068;2023-03-01T09:23:36;4.20;99.90
45096;DHT22;30858;51.108;8.068;2023-03-01T09:26:07;4.70;99.90
45096;DHT22;30858;51.108;8.068;2023-03-01T09:28:35;5.20;99.90
45096;DHT22;30858;51.108;8.068;2023-03-01T09:31:01;5.30;99.90
45096;DHT22;30858;51.108;8.068;2023-03-01T09:33:29;5.00;99.90
45096;DHT22;30858;51.108;8.068;2023-03-01T09:36:06;5.30;99.90
45096;DHT22;30858;51.108;8.068;2023-03-01T09:38:33;5.60;99.90
45096;DHT22;30858;51.108;8.068;2023-03-01T09:41:00;5.00;99.90
45096;DHT22;30858;51.108;8.068;2023-03-01T09:46:06;5.00;99.90
45096;DHT22;30858;51.108;8.068;2023-03-01T09:48:45;5.40;99.90
45096;DHT22;30858;51.108;8.068;2023-03-01T09:51:18;5.60;99.90
45096;DHT22;30858;51.108;8.068;2023-03-01T09:53:45;5.50;99.90
45096;DHT22;30858;51.108;8.068;2023-03-01T09:56:19;5.40;99.90
45096;DHT22;30858;51.108;8.068;2023-03-01T09:59:02;5.70;99.90
45096;DHT22;30858;51.108;8.068;2023-03-01T10:01:46;6.40;99.90
45096;DHT22;30858;51.108;8.068;2023-03-01T10:07:44;5.90;98.10
45096;DHT22;30858;51.108;8.068;2023-03-01T10:10:23;6.20;99.10
45096;DHT22;30858;51.108;8.068;2023-03-01T10:12:49;6.90;98.70
45096;DHT22;30858;51.108;8.068;2023-03-01T10:15:22;7.50;94.70
45096;DHT22;30858;51.108;8.068;2023-03-01T10:18:00;7.70;96.00
45096;DHT22;30858;51.108;8.068;2023-03-01T10:23:18;8.10;92.40
45096;DHT22;30858;51.108;8.068;2023-03-01T10:26:08;7.80;93.20
45096;DHT22;30858;51.108;8.068;2023-03-01T10:28:58;8.30;92.70
45096;DHT22;30858;51.108;8.068;2023-03-01T10:31:43;8.30;91.60
45096;DHT22;30858;51.108;8.068;2023-03-01T10:36:47;9.20;88.20
45096;DHT22;30858;51.108;8.068;2023-03-01T10:39:18;8.90;86.70
45096;DHT22;30858;51.108;8.068;2023-03-01T10:42:18;8.90;88.30
45096;DHT22;30858;51.108;8.068;2023-03-01T10:44:48;9.10;85.70
45096;DHT22;30858;51.108;8.068;2023-03-01T10:47:18;8.30;86.50
45096;DHT22;30858;51.108;8.068;2023-03-01T10:50:03;8.70;89.00
45096;DHT22;30858;51.108;8.068;2023-03-01T10:52:35;9.30;85.10
45096;DHT22;30858;51.108;8.068;2023-03-01T10:57:39;9.20;83.10
45096;DHT22;30858;51.108;8.068;2023-03-01T11:00:45;8.50;84.90
45096;DHT22;30858;51.108;8.068;2023-03-01T11:03:13;9.20;84.70
45096;DHT22;30858;51.108;8.068;2023-03-01T11:05:58;8.20;83.60
45096;DHT22;30858;51.108;8.068;2023-03-01T11:08:39;8.40;85.50
45096;DHT22;30858;51.108;8.068;2023-03-01T11:11:22;8.80;83.50
45096;DHT22;30858;51.108;8.068;2023-03-01T11:14:00;9.50;82.20
45096;DHT22;30858;51.108;8.068;2023-03-01T11:16:34;10.00;81.40
45096;DHT22;30858;51.108;8.068;2023-03-01T11:21:37;10.90;76.60
45096;DHT22;30858;51.108;8.068;2023-03-01T11:24:08;11.80;76.40
45096;DHT22;30858;51.108;8.068;2023-03-01T11:26:39;12.10;71.60
45096;DHT22;30858;51.108;8.068;2023-03-01T11:29:26;11.80;71.40
45096;DHT22;30858;51.108;8.068;2023-03-01T11:31:54;11.00;71.30
45096;DHT22;30858;51.108;8.068;2023-03-01T11:35:15;11.40;70.90
45096;DHT22;30858;51.108;8.068;2023-03-01T11:37:33;11.50;71.60
45096;DHT22;30858;51.108;8.068;2023-03-01T11:42:53;12.20;66.20
45096;DHT22;30858;51.108;8.068;2023-03-01T11:45:21;13.10;67.10
45096;DHT22;30858;51.108;8.068;2023-03-01T11:48:17;12.80;65.90
45096;DHT22;30858;51.108;8.068;2023-03-01T11:50:52;12.60;63.30
45096;DHT22;30858;51.108;8.068;2023-03-01T11:56:10;12.90;63.90
45096;DHT22;30858;51.108;8.068;2023-03-01T11:58:50;13.30;62.70
45096;DHT22;30858;51.108;8.068;2023-03-01T12:10:01;13.40;62.70
45096;DHT22;30858;51.108;8.068;2023-03-01T12:18:51;13.80;58.50
45096;DHT22;30858;51.108;8.068;2023-03-01T12:35:03;15.60;53.30
45096;DHT22;30858;51.108;8.068;2023-03-01T12:43:17;15.70;52.20
45096;DHT22;30858;51.108;8.068;2023-03-01T12:51:26;14.80;52.30
45096;DHT22;30858;51.108;8.068;2023-03-01T12:53:55;13.30;51.70
45096;DHT22;30858;51.108;8.068;2023-03-01T12:56:27;13.60;53.40
45096;DHT22;30858;51.108;8.068;2023-03-01T12:59:21;14.30;52.40
45096;DHT22;30858;51.108;8.068;2023-03-01T13:02:19;14.80;52.60
45096;DHT22;30858;51.108;8.068;2023-03-01T13:05:08;15.40;51.50
45096;DHT22;30858;51.108;8.068;2023-03-01T13:10:52;13.40;52.60
45096;DHT22;30858;51.108;8.068;2023-03-01T13:13:26;13.90;52.80
45096;DHT22;30858;51.108;8.068;2023-03-01T13:15:52;15.30;53.50
45096;DHT22;30858;51.108;8.068;2023-03-01T13:20:45;14.20;55.60
45096;DHT22;30858;51.108;8.068;2023-03-01T13:33:49;12.50;57.10
45096;DHT22;30858;51.108;8.068;2023-03-01T13:49:42;13.10;58.70
45096;DHT22;30858;51.108;8.068;2023-03-01T13:54:58;13.30;58.00
45096;DHT22;30858;51.108;8.068;2023-03-01T13:57:32;13.40;57.70
45096;DHT22;30858;51.108;8.068;2023-03-01T13:59:59;12.60;58.50
45096;DHT22;30858;51.108;8.068;2023-03-01T14:02:24;12.50;59.10
45096;DHT22;30858;51.108;8.068;2023-03-01T14:04:58;11.70;61.30
45096;DHT22;30858;51.108;8.068;2023-03-01T14:07:24;12.60;59.70
45096;DHT22;30858;51.108;8.068;2023-03-01T14:09:58;13.00;59.60
45096;DHT22;30858;51.108;8.068;2023-03-01T14:15:01;12.30;59.00
45096;DHT22;30858;51.108;8.068;2023-03-01T14:17:52;12.50;59.10
45096;DHT22;30858;51.108;8.068;2023-03-01T14:22:54;13.00;58.30
45096;DHT22;30858;51.108;8.068;2023-03-01T14:25:27;12.50;58.10
45096;DHT22;30858;51.108;8.068;2023-03-01T14:30:45;12.40;57.70
45096;DHT22;30858;51.108;8.068;2023-03-01T14:33:23;12.90;56.40
45096;DHT22;30858;51.108;8.068;2023-03-01T14:41:20;12.80;57.10
45096;DHT22;30858;51.108;8.068;2023-03-01T14:43:51;13.80;56.30
45096;DHT22;30858;51.108;8.068;2023-03-01T14:46:20;14.30;54.20
45096;DHT22;30858;51.108;8.068;2023-03-01T14:48:53;14.30;52.90
45096;DHT22;30858;51.108;8.068;2023-03-01T14:51:19;14.80;52.70
45096;DHT22;30858;51.108;8.068;2023-03-01T14:53:45;15.10;51.50
45096;DHT22;30858;51.108;8.068;2023-03-01T14:56:15;13.40;51.90
45096;DHT22;30858;51.108;8.068;2023-03-01T14:58:43;13.40;54.80
45096;DHT22;30858;51.108;8.068;2023-03-01T15:01:14;13.90;53.80
45096;DHT22;30858;51.108;8.068;2023-03-01T15:03:49;15.20;51.00
45096;DHT22;30858;51.108;8.068;2023-03-01T15:06:18;15.60;50.20
45096;DHT22;30858;51.108;8.068;2023-03-01T15:08:49;14.70;50.20
45096;DHT22;30858;51.108;8.068;2023-03-01T15:11:29;13.80;50.70
45096;DHT22;30858;51.108;8.068;2023-03-01T15:13:56;13.80;52.40
45096;DHT22;30858;51.108;8.068;2023-03-01T15:16:24;11.90;53.10
45096;DHT22;30858;51.108;8.068;2023-03-01T15:18:54;11.70;56.00
45096;DHT22;30858;51.108;8.068;2023-03-01T15:21:27;11.30;56.10
45096;DHT22;30858;51.108;8.068;2023-03-01T15:24:05;11.50;56.40
45096;DHT22;30858;51.108;8.068;2023-03-01T15:26:37;12.20;56.60
45096;DHT22;30858;51.108;8.068;2023-03-01T15:29:03;13.10;55.70
45096;DHT22;30858;51.108;8.068;2023-03-01T15:31:35;13.40;55.40
45096;DHT22;30858;51.108;8.068;2023-03-01T15:34:21;12.70;55.30
45096;DHT22;30858;51.108;8.068;2023-03-01T15:36:48;12.40;57.00
45096;DHT22;30858;51.108;8.068;2023-03-01T15:39:43;13.70;55.00
45096;DHT22;30858;51.108;8.068;2023-03-01T15:42:38;13.60;54.30
45096;DHT22;30858;51.108;8.068;2023-03-01T15:47:47;10.90;57.50
45096;DHT22;30858;51.108;8.068;2023-03-01T15:50:22;10.30;58.60
45096;DHT22;30858;51.108;8.068;2023-03-01T15:52:49;10.00;59.10
45096;DHT22;30858;51.108;8.068;2023-03-01T15:55:29;9.40;60.30
45096;DHT22;30858;51.108;8.068;2023-03-01T15:58:10;8.70;61.10
45096;DHT22;30858;51.108;8.068;2023-03-01T16:00:37;8.20;62.90
45096;DHT22;30858;51.108;8.068;2023-03-01T16:03:04;7.60;63.70
45096;DHT22;30858;51.108;8.068;2023-03-01T16:05:33;7.50;65.00
45096;DHT22;30858;51.108;8.068;2023-03-01T16:08:00;7.10;65.40
45096;DHT22;30858;51.108;8.068;2023-03-01T16:10:26;7.00;65.50
45096;DHT22;30858;51.108;8.068;2023-03-01T16:12:52;7.10;65.80
45096;DHT22;30858;51.108;8.068;2023-03-01T16:15:29;6.90;66.50
45096;DHT22;30858;51.108;8.068;2023-03-01T16:17:55;6.80;66.90
45096;DHT22;30858;51.108;8.068;2023-03-01T16:20:24;6.60;68.00
45096;DHT22;30858;51.108;8.068;2023-03-01T16:22:50;6.50;65.20
45096;DHT22;30858;51.108;8.068;2023-03-01T16:25:18;6.40;66.20
45096;DHT22;30858;51.108;8.068;2023-03-01T16:27:48;6.50;65.60
45096;DHT22;30858;51.108;8.068;2023-03-01T16:30:17;6.30;66.40
45096;DHT22;30858;51.108;8.068;2023-03-01T16:32:45;6.20;67.30
45096;DHT22;30858;51.108;8.068;2023-03-01T16:35:13;6.10;66.80
45096;DHT22;30858;51.108;8.068;2023-03-01T16:37:39;6.00;66.60
45096;DHT22;30858;51.108;8.068;2023-03-01T16:40:07;5.90;66.40
45096;DHT22;30858;51.108;8.068;2023-03-01T16:42:40;5.90;66.50
45096;DHT22;30858;51.108;8.068;2023-03-01T16:45:06;5.90;67.20
45096;DHT22;30858;51.108;8.068;2023-03-01T16:47:33;6.00;67.20
45096;DHT22;30858;51.108;8.068;2023-03-01T16:49:59;5.60;68.50
45096;DHT22;30858;51.108;8.068;2023-03-01T16:52:24;5.60;68.50
45096;DHT22;30858;51.108;8.068;2023-03-01T16:54:50;5.60;69.10
45096;DHT22;30858;51.108;8.068;2023-03-01T16:57:15;5.50;70.20
45096;DHT22;30858;51.108;8.068;2023-03-01T16:59:41;5.20;71.60
45096;DHT22;30858;51.108;8.068;2023-03-01T17:02:10;5.00;72.20
45096;DHT22;30858;51.108;8.068;2023-03-01T17:04:38;5.10;69.30
45096;DHT22;30858;51.108;8.068;2023-03-01T17:07:04;5.00;71.20
45096;DHT22;30858;51.108;8.068;2023-03-01T17:09:29;4.80;72.10
45096;DHT22;30858;51.108;8.068;2023-03-01T17:11:55;4.70;73.00
45096;DHT22;30858;51.108;8.068;2023-03-01T17:14:20;4.70;72.90
45096;DHT22;30858;51.108;8.068;2023-03-01T17:16:46;4.60;75.10
45096;DHT22;30858;51.108;8.068;2023-03-01T17:19:12;4.40;73.40
45096;DHT22;30858;51.108;8.068;2023-03-01T17:21:43;4.50;74.60
45096;DHT22;30858;51.108;8.068;2023-03-01T17:24:09;4.40;75.10
45096;DHT22;30858;51.108;8.068;2023-03-01T17:26:34;4.20;77.00
45096;DHT22;30858;51.108;8.068;2023-03-01T17:29:01;4.20;76.90
45096;DHT22;30858;51.108;8.068;2023-03-01T17:31:26;4.10;81.40
45096;DHT22;30858;51.108;8.068;2023-03-01T17:33:52;4.10;79.40
45096;DHT22;30858;51.108;8.068;2023-03-01T17:36:18;4.00;78.90
45096;DHT22;30858;51.108;8.068;2023-03-01T17:38:43;3.90;80.30
45096;DHT22;30858;51.108;8.068;2023-03-01T17:41:10;3.70;81.70
45096;DHT22;30858;51.108;8.068;2023-03-01T17:43:36;3.50;82.60